This is the latest recevied weather packets stored in our database for station/object NK0Z-13. If no packets are shown the sender has not sent any weather packets the latest 10 day(s).
| Time | Temp. | Humidity | Pressure | Rain* | Wind** | Luminosity | Snow |
|---|---|---|---|---|---|---|---|
| 1777842068 | 28.89° C | 20% | 1011.3 hPa | 0 mm | - | 367 W/m² | - |
| 1777841467 | 29.44° C | 18% | 1011.6 hPa | 0 mm | - | 472 W/m² | - |
| 1777840861 | 29.44° C | 18% | 1011.8 hPa | 0 mm | - | 550 W/m² | - |
| 1777840261 | 30° C | 18% | 1012.2 hPa | 0 mm | - | 379 W/m² | - |
| 1777839656 | 30° C | 18% | 1012.3 hPa | 0 mm | - | 574 W/m² | - |
| 1777839051 | 30° C | 18% | 1012.5 hPa | 0 mm | - | 795 W/m² | - |
| 1777838450 | 30° C | 19% | 1012.5 hPa | 0 mm | - | 703 W/m² | - |
| 1777837850 | 30° C | 19% | 1012.5 hPa | 0 mm | - | 688 W/m² | - |
| 1777837247 | 30° C | 18% | 1012.7 hPa | 0 mm | - | 653 W/m² | - |
| 1777836644 | 30° C | 16% | 1013 hPa | 0 mm | - | 713 W/m² | - |
| 1777836042 | 30° C | 18% | 1012.9 hPa | 0 mm | - | 855 W/m² | - |
| 1777835442 | 29.44° C | 16% | 1013.1 hPa | 0 mm | - | 834 W/m² | - |
| 1777834842 | 29.44° C | 17% | 1013 hPa | 0 mm | - | 872 W/m² | - |
| 1777834238 | 30° C | 16% | 1013.2 hPa | 0 mm | - | 806 W/m² | - |
| 1777833637 | 30° C | 16% | 1013.2 hPa | 0 mm | - | 762 W/m² | - |
| 1777833037 | 28.89° C | 19% | 1013.5 hPa | 0 mm | - | 844 W/m² | - |
| 1777832433 | 30° C | 17% | 1013.6 hPa | 0 mm | - | 831 W/m² | - |
| 1777831832 | 28.89° C | 19% | 1013.7 hPa | 0 mm | - | 849 W/m² | - |
| 1777831226 | 29.44° C | 19% | 1014 hPa | 0 mm | - | 810 W/m² | - |
| 1777830626 | 29.44° C | 17% | 1014.2 hPa | 0 mm | - | 821 W/m² | - |
| 1777830026 | 28.33° C | 22% | 1014.5 hPa | 0 mm | - | 820 W/m² | - |
| 1777829423 | 28.33° C | 21% | 1014.4 hPa | 0 mm | - | 808 W/m² | - |
| 1777828818 | 27.78° C | 22% | 1014.7 hPa | 0 mm | - | 807 W/m² | - |
| 1777828218 | 27.78° C | 23% | 1014.8 hPa | 0 mm | - | 786 W/m² | - |
| 1777827617 | 27.78° C | 24% | 1014.9 hPa | 0 mm | - | 774 W/m² | - |
* Rain latest hour (hover to see other rain measurements)
** Current wind speed in m/s (hover to see current wind gust speed)